עמוד ראשי
תמונות לווין תחזית 10-יוםאקליםתחזית ים סופות טרופיות ברקים שדות תעופהשאלות נפוצות עלון אודות
מזג אוויר : אירופה אפריקה אמריקה הצפונית אמריקה הדרומית אסיה אוסטרליה-אוקיאניה אחרים
שפות איש קשר

שטוטגרט, גרמניה

קו רוחב: 48-41N, קו אורך: 009-13E, גובה: 396מטר


METAR: EDDS 301950Z 32003KT CAVOK 13/08 Q1018 NOSIG
TAF: EDDS 301700Z 3018/3118 26008KT 9999 SCT040 BECMG 3019/3021 VRB03KT BECMG 3108/3110 22007KT

זמן: 22:21 (20:21 UTC)

תצפית מזג אוויר נוכחית

הדו"ח נערך לפני 31דקות, בשעה 19:50 UTC
רוח 3קשר מכיוון צפון-מערב
טמפרטורת 13 צלסיוס
לחות 72%
לחץ 1018 hPa
ראות 10 קילומטר או יותר
ללא עננים שבסיסם נמוך מ 1500 רגל או קומולונימבוס

שנה יחידות

תחזית

הדו"ח נערך לפני 3 שעות ו 21דקות, בשעה 17:00 UTC
תחזית בתוקף מ 30 ב 18 UTC עד 31 ב 18 UTC
רוח 8קשר מכיוון מערב
ראות 10 קילומטר או יותר
עננים פזורים בגובה 4000רגל
יעשה מ
30 ב 19 UTC עד 30 ב 21 UTC
רוח 3קשר עם כיוונים משתנים
יעשה מ
31 ב 08 UTC עד 31 ב 10 UTC
רוח 7קשר מכיוון דרום-מערב
המידע באתר זה מותנה של תניית פטור
מזג אוויר : אירופה אפריקה אמריקה הצפונית אמריקה הדרומית אסיה אוסטרליה-אוקיאניה אחרים
תמונות לווין תחזית 10-יוםאקליםתחזית ים סופות טרופיות ברקים שדות תעופהשאלות נפוצות שפות איש קשר עלון אודות